sensor_id;sensor_type;location;lat;lon;timestamp;temperature;humidity
5059;DHT22;2548;52.050;11.036;2023-04-15T00:00:21;7.00;99.90
5059;DHT22;2548;52.050;11.036;2023-04-15T00:02:49;7.00;99.90
5059;DHT22;2548;52.050;11.036;2023-04-15T00:05:16;6.90;99.90
5059;DHT22;2548;52.050;11.036;2023-04-15T00:07:45;6.90;99.90
5059;DHT22;2548;52.050;11.036;2023-04-15T00:10:13;6.90;99.90
5059;DHT22;2548;52.050;11.036;2023-04-15T00:12:40;6.90;99.90
5059;DHT22;2548;52.050;11.036;2023-04-15T00:15:09;6.90;99.90
5059;DHT22;2548;52.050;11.036;2023-04-15T00:17:37;6.80;99.90
5059;DHT22;2548;52.050;11.036;2023-04-15T00:20:06;6.80;99.90
5059;DHT22;2548;52.050;11.036;2023-04-15T00:22:33;6.80;99.90
5059;DHT22;2548;52.050;11.036;2023-04-15T00:25:03;6.90;99.90
5059;DHT22;2548;52.050;11.036;2023-04-15T00:27:30;6.90;99.90
5059;DHT22;2548;52.050;11.036;2023-04-15T00:29:58;6.90;99.90
5059;DHT22;2548;52.050;11.036;2023-04-15T00:32:26;6.90;99.90
5059;DHT22;2548;52.050;11.036;2023-04-15T00:34:54;6.90;99.90
5059;DHT22;2548;52.050;11.036;2023-04-15T00:37:21;6.90;99.90
5059;DHT22;2548;52.050;11.036;2023-04-15T00:39:48;6.90;99.90
5059;DHT22;2548;52.050;11.036;2023-04-15T00:42:18;6.90;99.90
5059;DHT22;2548;52.050;11.036;2023-04-15T00:44:46;6.90;99.90
5059;DHT22;2548;52.050;11.036;2023-04-15T00:47:14;6.90;99.90
5059;DHT22;2548;52.050;11.036;2023-04-15T00:49:42;7.00;99.90
5059;DHT22;2548;52.050;11.036;2023-04-15T00:52:09;6.90;99.90
5059;DHT22;2548;52.050;11.036;2023-04-15T00:54:37;6.90;99.90
5059;DHT22;2548;52.050;11.036;2023-04-15T00:57:04;6.90;99.90
5059;DHT22;2548;52.050;11.036;2023-04-15T00:59:35;6.90;99.90
5059;DHT22;2548;52.050;11.036;2023-04-15T01:02:02;7.00;99.90
5059;DHT22;2548;52.050;11.036;2023-04-15T01:04:30;7.00;99.90
5059;DHT22;2548;52.050;11.036;2023-04-15T01:06:58;6.90;99.90
5059;DHT22;2548;52.050;11.036;2023-04-15T01:09:26;7.00;99.90
5059;DHT22;2548;52.050;11.036;2023-04-15T01:11:53;6.90;99.90
5059;DHT22;2548;52.050;11.036;2023-04-15T01:14:21;6.90;99.90
5059;DHT22;2548;52.050;11.036;2023-04-15T01:16:50;6.90;99.90
5059;DHT22;2548;52.050;11.036;2023-04-15T01:19:19;7.00;99.90
5059;DHT22;2548;52.050;11.036;2023-04-15T01:21:46;6.90;99.90
5059;DHT22;2548;52.050;11.036;2023-04-15T01:24:17;6.90;99.90
5059;DHT22;2548;52.050;11.036;2023-04-15T01:26:46;6.90;99.90
5059;DHT22;2548;52.050;11.036;2023-04-15T01:29:15;6.90;99.90
5059;DHT22;2548;52.050;11.036;2023-04-15T01:31:49;6.90;99.90
5059;DHT22;2548;52.050;11.036;2023-04-15T01:34:18;7.00;99.90
5059;DHT22;2548;52.050;11.036;2023-04-15T01:36:46;7.00;99.90
5059;DHT22;2548;52.050;11.036;2023-04-15T01:39:14;6.90;99.90
5059;DHT22;2548;52.050;11.036;2023-04-15T01:41:42;6.90;99.90
5059;DHT22;2548;52.050;11.036;2023-04-15T01:44:11;6.90;99.90
5059;DHT22;2548;52.050;11.036;2023-04-15T01:46:39;6.90;99.90
5059;DHT22;2548;52.050;11.036;2023-04-15T01:49:07;7.00;99.90
5059;DHT22;2548;52.050;11.036;2023-04-15T01:51:34;7.00;99.90
5059;DHT22;2548;52.050;11.036;2023-04-15T01:54:02;7.00;99.90
5059;DHT22;2548;52.050;11.036;2023-04-15T01:56:29;7.00;99.90
5059;DHT22;2548;52.050;11.036;2023-04-15T01:58:57;7.00;99.90
5059;DHT22;2548;52.050;11.036;2023-04-15T02:01:26;7.00;99.90
5059;DHT22;2548;52.050;11.036;2023-04-15T02:03:53;7.00;99.90
5059;DHT22;2548;52.050;11.036;2023-04-15T02:06:20;7.00;99.90
5059;DHT22;2548;52.050;11.036;2023-04-15T02:08:48;7.10;99.90
5059;DHT22;2548;52.050;11.036;2023-04-15T02:11:15;7.00;99.90
5059;DHT22;2548;52.050;11.036;2023-04-15T02:13:43;7.00;99.90
5059;DHT22;2548;52.050;11.036;2023-04-15T02:16:15;7.00;99.90
5059;DHT22;2548;52.050;11.036;2023-04-15T02:18:45;7.00;99.90
5059;DHT22;2548;52.050;11.036;2023-04-15T02:21:13;7.00;99.90
5059;DHT22;2548;52.050;11.036;2023-04-15T02:23:40;7.00;99.90
5059;DHT22;2548;52.050;11.036;2023-04-15T02:26:12;7.00;99.90
5059;DHT22;2548;52.050;11.036;2023-04-15T02:28:40;7.00;99.90
5059;DHT22;2548;52.050;11.036;2023-04-15T02:31:07;6.90;99.90
5059;DHT22;2548;52.050;11.036;2023-04-15T02:33:35;6.90;99.90
5059;DHT22;2548;52.050;11.036;2023-04-15T02:36:04;6.90;99.90
5059;DHT22;2548;52.050;11.036;2023-04-15T02:38:32;6.90;99.90
5059;DHT22;2548;52.050;11.036;2023-04-15T02:41:00;6.90;99.90
5059;DHT22;2548;52.050;11.036;2023-04-15T02:43:28;6.90;99.90
5059;DHT22;2548;52.050;11.036;2023-04-15T02:45:55;6.90;99.90
5059;DHT22;2548;52.050;11.036;2023-04-15T02:48:23;6.90;99.90
5059;DHT22;2548;52.050;11.036;2023-04-15T02:50:51;6.90;99.90
5059;DHT22;2548;52.050;11.036;2023-04-15T02:53:20;6.90;99.90
5059;DHT22;2548;52.050;11.036;2023-04-15T02:55:47;6.90;99.90
5059;DHT22;2548;52.050;11.036;2023-04-15T02:58:15;7.00;99.90
5059;DHT22;2548;52.050;11.036;2023-04-15T03:00:42;7.00;99.90
5059;DHT22;2548;52.050;11.036;2023-04-15T03:03:09;7.00;99.90
5059;DHT22;2548;52.050;11.036;2023-04-15T03:05:40;7.00;99.90
5059;DHT22;2548;52.050;11.036;2023-04-15T03:08:07;6.90;99.90
5059;DHT22;2548;52.050;11.036;2023-04-15T03:10:36;6.90;99.90
5059;DHT22;2548;52.050;11.036;2023-04-15T03:13:03;6.90;99.90
5059;DHT22;2548;52.050;11.036;2023-04-15T03:15:32;6.90;99.90
5059;DHT22;2548;52.050;11.036;2023-04-15T03:18:00;6.90;99.90
5059;DHT22;2548;52.050;11.036;2023-04-15T03:20:28;6.90;99.90
5059;DHT22;2548;52.050;11.036;2023-04-15T03:22:55;6.90;99.90
5059;DHT22;2548;52.050;11.036;2023-04-15T03:25:24;6.80;99.90
5059;DHT22;2548;52.050;11.036;2023-04-15T03:27:53;6.80;99.90
5059;DHT22;2548;52.050;11.036;2023-04-15T03:30:21;6.90;99.90
5059;DHT22;2548;52.050;11.036;2023-04-15T03:32:48;6.80;99.90
5059;DHT22;2548;52.050;11.036;2023-04-15T03:35:16;6.80;99.90
5059;DHT22;2548;52.050;11.036;2023-04-15T03:37:44;6.90;99.90
5059;DHT22;2548;52.050;11.036;2023-04-15T03:40:12;6.80;99.90
5059;DHT22;2548;52.050;11.036;2023-04-15T03:42:39;6.80;99.90
5059;DHT22;2548;52.050;11.036;2023-04-15T03:45:09;6.90;99.90
5059;DHT22;2548;52.050;11.036;2023-04-15T03:47:36;6.90;99.90
5059;DHT22;2548;52.050;11.036;2023-04-15T03:50:05;6.90;99.90
5059;DHT22;2548;52.050;11.036;2023-04-15T03:52:35;6.90;99.90
5059;DHT22;2548;52.050;11.036;2023-04-15T03:55:03;6.90;99.90
5059;DHT22;2548;52.050;11.036;2023-04-15T03:57:40;6.90;99.90
5059;DHT22;2548;52.050;11.036;2023-04-15T04:00:09;6.90;99.90
5059;DHT22;2548;52.050;11.036;2023-04-15T04:02:40;6.90;99.90
5059;DHT22;2548;52.050;11.036;2023-04-15T04:05:08;6.90;99.90
5059;DHT22;2548;52.050;11.036;2023-04-15T04:07:35;6.90;99.90
5059;DHT22;2548;52.050;11.036;2023-04-15T04:10:04;6.80;99.90
5059;DHT22;2548;52.050;11.036;2023-04-15T04:12:31;6.80;99.90
5059;DHT22;2548;52.050;11.036;2023-04-15T04:15:11;6.80;99.90
5059;DHT22;2548;52.050;11.036;2023-04-15T04:17:39;6.80;99.90
5059;DHT22;2548;52.050;11.036;2023-04-15T04:20:10;6.80;99.90
5059;DHT22;2548;52.050;11.036;2023-04-15T04:22:39;6.80;99.90
5059;DHT22;2548;52.050;11.036;2023-04-15T04:25:07;6.80;99.90
5059;DHT22;2548;52.050;11.036;2023-04-15T04:27:35;6.80;99.90
5059;DHT22;2548;52.050;11.036;2023-04-15T04:30:04;6.80;99.90
5059;DHT22;2548;52.050;11.036;2023-04-15T04:32:33;6.80;99.90
5059;DHT22;2548;52.050;11.036;2023-04-15T04:35:01;6.80;99.90
5059;DHT22;2548;52.050;11.036;2023-04-15T04:37:28;6.80;99.90
5059;DHT22;2548;52.050;11.036;2023-04-15T04:39:56;6.80;99.90
5059;DHT22;2548;52.050;11.036;2023-04-15T04:42:24;6.90;99.90
5059;DHT22;2548;52.050;11.036;2023-04-15T04:44:51;6.80;99.90
5059;DHT22;2548;52.050;11.036;2023-04-15T04:47:19;6.80;99.90
5059;DHT22;2548;52.050;11.036;2023-04-15T04:49:48;6.80;99.90
5059;DHT22;2548;52.050;11.036;2023-04-15T04:52:16;6.80;99.90
5059;DHT22;2548;52.050;11.036;2023-04-15T04:54:43;6.80;99.90
5059;DHT22;2548;52.050;11.036;2023-04-15T04:57:12;6.80;99.90
5059;DHT22;2548;52.050;11.036;2023-04-15T04:59:43;6.80;99.90
5059;DHT22;2548;52.050;11.036;2023-04-15T05:02:13;6.80;99.90
5059;DHT22;2548;52.050;11.036;2023-04-15T05:04:41;6.80;99.90
5059;DHT22;2548;52.050;11.036;2023-04-15T05:07:10;6.80;99.90
5059;DHT22;2548;52.050;11.036;2023-04-15T05:09:37;6.90;99.90
5059;DHT22;2548;52.050;11.036;2023-04-15T05:12:05;6.80;99.90
5059;DHT22;2548;52.050;11.036;2023-04-15T05:14:37;6.80;99.90
5059;DHT22;2548;52.050;11.036;2023-04-15T05:17:05;6.80;99.90
5059;DHT22;2548;52.050;11.036;2023-04-15T05:19:33;6.80;99.90
5059;DHT22;2548;52.050;11.036;2023-04-15T05:22:00;6.80;99.90
5059;DHT22;2548;52.050;11.036;2023-04-15T05:24:29;6.90;99.90
5059;DHT22;2548;52.050;11.036;2023-04-15T05:26:57;6.90;99.90
5059;DHT22;2548;52.050;11.036;2023-04-15T05:29:26;6.90;99.90
5059;DHT22;2548;52.050;11.036;2023-04-15T05:31:54;6.90;99.90
5059;DHT22;2548;52.050;11.036;2023-04-15T05:34:22;6.90;99.90
5059;DHT22;2548;52.050;11.036;2023-04-15T05:36:49;6.90;99.90
5059;DHT22;2548;52.050;11.036;2023-04-15T05:39:19;6.90;99.90
5059;DHT22;2548;52.050;11.036;2023-04-15T05:41:48;6.90;99.90
5059;DHT22;2548;52.050;11.036;2023-04-15T05:44:16;7.00;99.90
5059;DHT22;2548;52.050;11.036;2023-04-15T05:46:44;7.00;99.90
5059;DHT22;2548;52.050;11.036;2023-04-15T05:49:11;6.90;99.90
5059;DHT22;2548;52.050;11.036;2023-04-15T05:51:39;6.90;99.90
5059;DHT22;2548;52.050;11.036;2023-04-15T05:54:07;6.90;99.90
5059;DHT22;2548;52.050;11.036;2023-04-15T05:56:34;6.90;99.90
5059;DHT22;2548;52.050;11.036;2023-04-15T05:59:11;6.90;99.90
5059;DHT22;2548;52.050;11.036;2023-04-15T06:01:39;6.90;99.90
5059;DHT22;2548;52.050;11.036;2023-04-15T06:04:06;6.90;99.90
5059;DHT22;2548;52.050;11.036;2023-04-15T06:06:34;7.00;99.90
5059;DHT22;2548;52.050;11.036;2023-04-15T06:09:14;7.00;99.90
5059;DHT22;2548;52.050;11.036;2023-04-15T06:11:42;7.00;99.90
5059;DHT22;2548;52.050;11.036;2023-04-15T06:14:11;7.10;99.90
5059;DHT22;2548;52.050;11.036;2023-04-15T06:16:39;7.10;99.90
5059;DHT22;2548;52.050;11.036;2023-04-15T06:19:07;7.10;99.90
5059;DHT22;2548;52.050;11.036;2023-04-15T06:21:35;7.10;99.90
5059;DHT22;2548;52.050;11.036;2023-04-15T06:24:05;7.10;99.90
5059;DHT22;2548;52.050;11.036;2023-04-15T06:26:39;7.10;99.90
5059;DHT22;2548;52.050;11.036;2023-04-15T06:29:07;7.10;99.90
5059;DHT22;2548;52.050;11.036;2023-04-15T06:31:36;7.10;99.90
5059;DHT22;2548;52.050;11.036;2023-04-15T06:34:06;7.10;99.90
5059;DHT22;2548;52.050;11.036;2023-04-15T06:36:34;7.10;99.90
5059;DHT22;2548;52.050;11.036;2023-04-15T06:39:02;7.20;99.90
5059;DHT22;2548;52.050;11.036;2023-04-15T06:41:39;7.20;99.90
5059;DHT22;2548;52.050;11.036;2023-04-15T06:44:06;7.20;99.90
5059;DHT22;2548;52.050;11.036;2023-04-15T06:46:36;7.20;99.90
5059;DHT22;2548;52.050;11.036;2023-04-15T06:49:03;7.20;99.90
5059;DHT22;2548;52.050;11.036;2023-04-15T06:51:31;7.30;99.90
5059;DHT22;2548;52.050;11.036;2023-04-15T06:53:59;7.30;99.90
5059;DHT22;2548;52.050;11.036;2023-04-15T06:56:27;7.30;99.90
5059;DHT22;2548;52.050;11.036;2023-04-15T06:58:55;7.30;99.90
5059;DHT22;2548;52.050;11.036;2023-04-15T07:01:29;7.30;99.90
5059;DHT22;2548;52.050;11.036;2023-04-15T07:03:58;7.30;99.90
5059;DHT22;2548;52.050;11.036;2023-04-15T07:06:31;7.40;99.90
5059;DHT22;2548;52.050;11.036;2023-04-15T07:09:00;7.40;99.90
5059;DHT22;2548;52.050;11.036;2023-04-15T07:11:28;7.40;99.90
5059;DHT22;2548;52.050;11.036;2023-04-15T07:13:57;7.40;99.90
5059;DHT22;2548;52.050;11.036;2023-04-15T07:16:28;7.50;99.90
5059;DHT22;2548;52.050;11.036;2023-04-15T07:18:58;7.40;99.90
5059;DHT22;2548;52.050;11.036;2023-04-15T07:21:25;7.40;99.90
5059;DHT22;2548;52.050;11.036;2023-04-15T07:23:53;7.40;99.90
5059;DHT22;2548;52.050;11.036;2023-04-15T07:26:20;7.40;99.90
5059;DHT22;2548;52.050;11.036;2023-04-15T07:28:58;7.40;99.90
5059;DHT22;2548;52.050;11.036;2023-04-15T07:31:26;7.40;99.90
5059;DHT22;2548;52.050;11.036;2023-04-15T07:33:54;7.50;99.90
5059;DHT22;2548;52.050;11.036;2023-04-15T07:36:23;7.50;99.90
5059;DHT22;2548;52.050;11.036;2023-04-15T07:38:53;7.50;99.90
5059;DHT22;2548;52.050;11.036;2023-04-15T07:41:24;7.50;99.90
5059;DHT22;2548;52.050;11.036;2023-04-15T07:43:52;7.50;99.90
5059;DHT22;2548;52.050;11.036;2023-04-15T07:46:20;7.50;99.90
5059;DHT22;2548;52.050;11.036;2023-04-15T07:48:49;7.50;99.90
5059;DHT22;2548;52.050;11.036;2023-04-15T07:51:17;7.60;99.90
5059;DHT22;2548;52.050;11.036;2023-04-15T07:53:48;7.60;99.90
5059;DHT22;2548;52.050;11.036;2023-04-15T07:56:16;7.60;99.90
5059;DHT22;2548;52.050;11.036;2023-04-15T07:58:43;7.60;99.90
5059;DHT22;2548;52.050;11.036;2023-04-15T08:01:11;7.60;99.90
5059;DHT22;2548;52.050;11.036;2023-04-15T08:03:39;7.60;99.90
5059;DHT22;2548;52.050;11.036;2023-04-15T08:06:06;7.60;99.90
5059;DHT22;2548;52.050;11.036;2023-04-15T08:08:34;7.60;99.90
5059;DHT22;2548;52.050;11.036;2023-04-15T08:11:09;7.60;99.90
5059;DHT22;2548;52.050;11.036;2023-04-15T08:13:41;7.60;99.90
5059;DHT22;2548;52.050;11.036;2023-04-15T08:16:17;7.60;99.90
5059;DHT22;2548;52.050;11.036;2023-04-15T08:18:54;7.60;99.90
5059;DHT22;2548;52.050;11.036;2023-04-15T08:21:21;7.70;99.90
5059;DHT22;2548;52.050;11.036;2023-04-15T08:23:51;7.70;99.90
5059;DHT22;2548;52.050;11.036;2023-04-15T08:26:21;7.70;99.90
5059;DHT22;2548;52.050;11.036;2023-04-15T08:28:48;7.70;99.90
5059;DHT22;2548;52.050;11.036;2023-04-15T08:31:21;7.70;99.90
5059;DHT22;2548;52.050;11.036;2023-04-15T08:33:50;7.70;99.90
5059;DHT22;2548;52.050;11.036;2023-04-15T08:36:19;7.80;99.90
5059;DHT22;2548;52.050;11.036;2023-04-15T08:38:54;7.80;99.90
5059;DHT22;2548;52.050;11.036;2023-04-15T08:41:24;7.80;99.90
5059;DHT22;2548;52.050;11.036;2023-04-15T08:43:56;7.90;99.90
5059;DHT22;2548;52.050;11.036;2023-04-15T08:46:25;7.90;99.90
5059;DHT22;2548;52.050;11.036;2023-04-15T08:48:56;7.90;99.90
5059;DHT22;2548;52.050;11.036;2023-04-15T08:51:27;7.90;99.90
5059;DHT22;2548;52.050;11.036;2023-04-15T08:53:57;7.90;99.90
5059;DHT22;2548;52.050;11.036;2023-04-15T08:56:30;7.90;99.90
5059;DHT22;2548;52.050;11.036;2023-04-15T08:58:58;7.90;99.90
5059;DHT22;2548;52.050;11.036;2023-04-15T09:01:26;7.90;99.90
5059;DHT22;2548;52.050;11.036;2023-04-15T09:03:58;7.90;99.90
5059;DHT22;2548;52.050;11.036;2023-04-15T09:06:28;8.00;99.90
5059;DHT22;2548;52.050;11.036;2023-04-15T09:09:02;8.00;99.90
5059;DHT22;2548;52.050;11.036;2023-04-15T09:11:32;8.00;99.90
5059;DHT22;2548;52.050;11.036;2023-04-15T09:13:59;8.00;99.90
5059;DHT22;2548;52.050;11.036;2023-04-15T09:19:20;8.00;99.90
5059;DHT22;2548;52.050;11.036;2023-04-15T09:21:48;8.00;99.90
5059;DHT22;2548;52.050;11.036;2023-04-15T09:24:17;8.00;99.90
5059;DHT22;2548;52.050;11.036;2023-04-15T09:26:46;8.00;99.90
5059;DHT22;2548;52.050;11.036;2023-04-15T09:29:14;8.00;99.90
5059;DHT22;2548;52.050;11.036;2023-04-15T09:31:43;8.00;99.90
5059;DHT22;2548;52.050;11.036;2023-04-15T09:34:11;8.10;99.90
5059;DHT22;2548;52.050;11.036;2023-04-15T09:36:52;8.10;99.90
5059;DHT22;2548;52.050;11.036;2023-04-15T09:39:19;8.10;99.90
5059;DHT22;2548;52.050;11.036;2023-04-15T09:42:03;8.20;99.90
5059;DHT22;2548;52.050;11.036;2023-04-15T09:44:32;8.20;99.90
5059;DHT22;2548;52.050;11.036;2023-04-15T09:47:02;8.20;99.90
5059;DHT22;2548;52.050;11.036;2023-04-15T09:49:36;8.20;99.90
5059;DHT22;2548;52.050;11.036;2023-04-15T09:52:16;8.20;99.90
5059;DHT22;2548;52.050;11.036;2023-04-15T09:54:47;8.30;99.90
5059;DHT22;2548;52.050;11.036;2023-04-15T09:57:19;8.30;99.90
5059;DHT22;2548;52.050;11.036;2023-04-15T09:59:51;8.30;99.90
5059;DHT22;2548;52.050;11.036;2023-04-15T10:02:20;8.30;99.90
5059;DHT22;2548;52.050;11.036;2023-04-15T10:04:49;8.30;99.90
5059;DHT22;2548;52.050;11.036;2023-04-15T10:07:23;8.30;99.90
5059;DHT22;2548;52.050;11.036;2023-04-15T10:09:55;8.30;99.90
5059;DHT22;2548;52.050;11.036;2023-04-15T10:12:37;8.40;99.90
5059;DHT22;2548;52.050;11.036;2023-04-15T10:15:12;8.40;99.90
5059;DHT22;2548;52.050;11.036;2023-04-15T10:17:44;8.40;99.90
5059;DHT22;2548;52.050;11.036;2023-04-15T10:20:17;8.40;99.90
5059;DHT22;2548;52.050;11.036;2023-04-15T10:22:48;8.50;99.90
5059;DHT22;2548;52.050;11.036;2023-04-15T10:25:18;8.50;99.90
5059;DHT22;2548;52.050;11.036;2023-04-15T10:27:50;8.50;99.90
5059;DHT22;2548;52.050;11.036;2023-04-15T10:30:22;8.50;99.90
5059;DHT22;2548;52.050;11.036;2023-04-15T10:32:52;8.50;99.90
5059;DHT22;2548;52.050;11.036;2023-04-15T10:35:29;8.60;99.90
5059;DHT22;2548;52.050;11.036;2023-04-15T10:37:59;8.50;99.90
5059;DHT22;2548;52.050;11.036;2023-04-15T10:40:30;8.60;99.90
5059;DHT22;2548;52.050;11.036;2023-04-15T10:43:02;8.60;99.90
5059;DHT22;2548;52.050;11.036;2023-04-15T10:45:34;8.60;99.90
5059;DHT22;2548;52.050;11.036;2023-04-15T10:48:06;8.60;99.90
5059;DHT22;2548;52.050;11.036;2023-04-15T10:50:36;8.60;99.90
5059;DHT22;2548;52.050;11.036;2023-04-15T10:53:05;8.60;99.90
5059;DHT22;2548;52.050;11.036;2023-04-15T10:55:38;8.60;99.90
5059;DHT22;2548;52.050;11.036;2023-04-15T10:58:11;8.60;99.90
5059;DHT22;2548;52.050;11.036;2023-04-15T11:00:49;8.60;99.90
5059;DHT22;2548;52.050;11.036;2023-04-15T11:03:35;8.60;99.90
5059;DHT22;2548;52.050;11.036;2023-04-15T11:06:05;8.60;99.90
5059;DHT22;2548;52.050;11.036;2023-04-15T11:08:56;8.60;99.90
5059;DHT22;2548;52.050;11.036;2023-04-15T11:14:29;8.60;99.90
5059;DHT22;2548;52.050;11.036;2023-04-15T11:16:57;8.60;99.90
5059;DHT22;2548;52.050;11.036;2023-04-15T11:19:35;8.60;99.90
5059;DHT22;2548;52.050;11.036;2023-04-15T11:22:07;8.60;99.90
5059;DHT22;2548;52.050;11.036;2023-04-15T11:24:48;8.70;99.90
5059;DHT22;2548;52.050;11.036;2023-04-15T11:27:21;8.70;99.90
5059;DHT22;2548;52.050;11.036;2023-04-15T11:29:52;8.70;99.90
5059;DHT22;2548;52.050;11.036;2023-04-15T11:32:22;8.70;99.90
5059;DHT22;2548;52.050;11.036;2023-04-15T11:35:00;8.70;99.90
5059;DHT22;2548;52.050;11.036;2023-04-15T11:37:31;8.80;99.90
5059;DHT22;2548;52.050;11.036;2023-04-15T11:40:08;8.80;99.90
5059;DHT22;2548;52.050;11.036;2023-04-15T11:42:38;8.80;99.90
5059;DHT22;2548;52.050;11.036;2023-04-15T11:45:14;8.80;99.90
5059;DHT22;2548;52.050;11.036;2023-04-15T11:47:45;8.80;99.90
5059;DHT22;2548;52.050;11.036;2023-04-15T11:50:15;8.80;99.90
5059;DHT22;2548;52.050;11.036;2023-04-15T11:52:57;8.80;99.90
5059;DHT22;2548;52.050;11.036;2023-04-15T11:55:28;8.70;99.90
5059;DHT22;2548;52.050;11.036;2023-04-15T11:58:10;8.70;99.90
5059;DHT22;2548;52.050;11.036;2023-04-15T12:00:45;8.80;99.90
5059;DHT22;2548;52.050;11.036;2023-04-15T12:03:21;8.70;99.90
5059;DHT22;2548;52.050;11.036;2023-04-15T12:06:08;8.70;99.90
5059;DHT22;2548;52.050;11.036;2023-04-15T12:08:52;8.70;99.90
5059;DHT22;2548;52.050;11.036;2023-04-15T12:11:35;8.70;99.90
5059;DHT22;2548;52.050;11.036;2023-04-15T12:14:11;8.70;99.90
5059;DHT22;2548;52.050;11.036;2023-04-15T12:16:44;8.80;99.90
5059;DHT22;2548;52.050;11.036;2023-04-15T12:19:14;8.80;99.90
5059;DHT22;2548;52.050;11.036;2023-04-15T12:21:51;8.80;99.90
5059;DHT22;2548;52.050;11.036;2023-04-15T12:24:25;8.80;99.90
5059;DHT22;2548;52.050;11.036;2023-04-15T12:26:55;8.90;99.90
5059;DHT22;2548;52.050;11.036;2023-04-15T12:29:26;8.90;99.90
5059;DHT22;2548;52.050;11.036;2023-04-15T12:32:06;8.80;99.90
5059;DHT22;2548;52.050;11.036;2023-04-15T12:34:38;8.80;99.90
5059;DHT22;2548;52.050;11.036;2023-04-15T12:37:08;8.80;99.90
5059;DHT22;2548;52.050;11.036;2023-04-15T12:39:37;8.80;99.90
5059;DHT22;2548;52.050;11.036;2023-04-15T12:42:06;8.80;99.90
5059;DHT22;2548;52.050;11.036;2023-04-15T12:44:35;8.80;99.90
5059;DHT22;2548;52.050;11.036;2023-04-15T12:47:08;8.80;99.90
5059;DHT22;2548;52.050;11.036;2023-04-15T12:49:36;8.80;99.90
5059;DHT22;2548;52.050;11.036;2023-04-15T12:52:04;8.90;99.90
5059;DHT22;2548;52.050;11.036;2023-04-15T12:54:32;8.90;99.90
5059;DHT22;2548;52.050;11.036;2023-04-15T12:57:01;8.90;99.90
5059;DHT22;2548;52.050;11.036;2023-04-15T12:59:29;8.90;99.90
5059;DHT22;2548;52.050;11.036;2023-04-15T13:01:57;9.00;99.90
5059;DHT22;2548;52.050;11.036;2023-04-15T13:04:29;9.00;99.90
5059;DHT22;2548;52.050;11.036;2023-04-15T13:07:03;9.00;99.90
5059;DHT22;2548;52.050;11.036;2023-04-15T13:09:30;9.10;99.90
5059;DHT22;2548;52.050;11.036;2023-04-15T13:12:01;9.10;99.90
5059;DHT22;2548;52.050;11.036;2023-04-15T13:14:30;9.10;99.90
5059;DHT22;2548;52.050;11.036;2023-04-15T13:16:58;9.10;99.90
5059;DHT22;2548;52.050;11.036;2023-04-15T13:19:29;9.10;99.90
5059;DHT22;2548;52.050;11.036;2023-04-15T13:21:59;9.20;99.90
5059;DHT22;2548;52.050;11.036;2023-04-15T13:24:30;9.20;99.90
5059;DHT22;2548;52.050;11.036;2023-04-15T13:29:49;9.30;99.90
5059;DHT22;2548;52.050;11.036;2023-04-15T13:32:18;9.20;99.90
5059;DHT22;2548;52.050;11.036;2023-04-15T13:34:54;9.20;99.90
5059;DHT22;2548;52.050;11.036;2023-04-15T13:37:28;9.20;99.90
5059;DHT22;2548;52.050;11.036;2023-04-15T13:39:57;9.30;99.90
5059;DHT22;2548;52.050;11.036;2023-04-15T13:42:28;9.30;99.90
5059;DHT22;2548;52.050;11.036;2023-04-15T13:45:01;9.30;99.90
5059;DHT22;2548;52.050;11.036;2023-04-15T13:47:30;9.30;99.90
5059;DHT22;2548;52.050;11.036;2023-04-15T13:50:01;9.30;99.90
5059;DHT22;2548;52.050;11.036;2023-04-15T13:52:35;9.40;99.90
5059;DHT22;2548;52.050;11.036;2023-04-15T13:55:07;9.40;99.90
5059;DHT22;2548;52.050;11.036;2023-04-15T13:57:36;9.40;99.90
5059;DHT22;2548;52.050;11.036;2023-04-15T14:00:06;9.40;99.90
5059;DHT22;2548;52.050;11.036;2023-04-15T14:02:35;9.40;99.90
5059;DHT22;2548;52.050;11.036;2023-04-15T14:05:05;9.40;99.90
5059;DHT22;2548;52.050;11.036;2023-04-15T14:07:33;9.40;99.90
5059;DHT22;2548;52.050;11.036;2023-04-15T14:10:06;9.40;99.90
5059;DHT22;2548;52.050;11.036;2023-04-15T14:12:35;9.40;99.90
5059;DHT22;2548;52.050;11.036;2023-04-15T14:15:05;9.40;99.90
5059;DHT22;2548;52.050;11.036;2023-04-15T14:17:33;9.40;99.90
5059;DHT22;2548;52.050;11.036;2023-04-15T14:20:02;9.40;99.90
5059;DHT22;2548;52.050;11.036;2023-04-15T14:22:33;9.30;99.90
5059;DHT22;2548;52.050;11.036;2023-04-15T14:25:01;9.30;99.90
5059;DHT22;2548;52.050;11.036;2023-04-15T14:27:29;9.30;99.90
5059;DHT22;2548;52.050;11.036;2023-04-15T14:29:57;9.40;99.90
5059;DHT22;2548;52.050;11.036;2023-04-15T14:32:26;9.40;99.90
5059;DHT22;2548;52.050;11.036;2023-04-15T14:34:56;9.40;99.90
5059;DHT22;2548;52.050;11.036;2023-04-15T14:37:24;9.40;99.90
5059;DHT22;2548;52.050;11.036;2023-04-15T14:39:54;9.40;99.90
5059;DHT22;2548;52.050;11.036;2023-04-15T14:42:23;9.40;99.90
5059;DHT22;2548;52.050;11.036;2023-04-15T14:44:53;9.40;99.90
5059;DHT22;2548;52.050;11.036;2023-04-15T14:47:21;9.50;99.90
5059;DHT22;2548;52.050;11.036;2023-04-15T14:49:50;9.50;99.90
5059;DHT22;2548;52.050;11.036;2023-04-15T14:52:21;9.50;99.90
5059;DHT22;2548;52.050;11.036;2023-04-15T14:54:55;9.50;99.90
5059;DHT22;2548;52.050;11.036;2023-04-15T14:57:23;9.50;99.90
5059;DHT22;2548;52.050;11.036;2023-04-15T14:59:51;9.60;99.90
5059;DHT22;2548;52.050;11.036;2023-04-15T15:02:21;9.50;99.90
5059;DHT22;2548;52.050;11.036;2023-04-15T15:04:52;9.60;99.90
5059;DHT22;2548;52.050;11.036;2023-04-15T15:07:21;9.60;99.90
5059;DHT22;2548;52.050;11.036;2023-04-15T15:09:53;9.60;99.90
5059;DHT22;2548;52.050;11.036;2023-04-15T15:12:30;9.50;99.90
5059;DHT22;2548;52.050;11.036;2023-04-15T15:17:36;9.50;99.90
5059;DHT22;2548;52.050;11.036;2023-04-15T15:20:05;9.60;99.90
5059;DHT22;2548;52.050;11.036;2023-04-15T15:22:34;9.60;99.90
5059;DHT22;2548;52.050;11.036;2023-04-15T15:25:05;9.60;99.90
5059;DHT22;2548;52.050;11.036;2023-04-15T15:27:37;9.60;99.90
5059;DHT22;2548;52.050;11.036;2023-04-15T15:30:07;9.60;99.90
5059;DHT22;2548;52.050;11.036;2023-04-15T15:32:35;9.60;99.90
5059;DHT22;2548;52.050;11.036;2023-04-15T15:35:09;9.60;99.90
5059;DHT22;2548;52.050;11.036;2023-04-15T15:37:37;9.60;99.90
5059;DHT22;2548;52.050;11.036;2023-04-15T15:40:07;9.60;99.90
5059;DHT22;2548;52.050;11.036;2023-04-15T15:42:36;9.60;99.90
5059;DHT22;2548;52.050;11.036;2023-04-15T15:45:07;9.60;99.90
5059;DHT22;2548;52.050;11.036;2023-04-15T15:47:35;9.60;99.90
5059;DHT22;2548;52.050;11.036;2023-04-15T15:50:04;9.60;99.90
5059;DHT22;2548;52.050;11.036;2023-04-15T15:52:32;9.60;99.90
5059;DHT22;2548;52.050;11.036;2023-04-15T15:55:05;9.70;99.90
5059;DHT22;2548;52.050;11.036;2023-04-15T15:57:33;9.70;99.90
5059;DHT22;2548;52.050;11.036;2023-04-15T16:00:04;9.70;99.90
5059;DHT22;2548;52.050;11.036;2023-04-15T16:02:36;9.70;99.90
5059;DHT22;2548;52.050;11.036;2023-04-15T16:05:06;9.70;99.90
5059;DHT22;2548;52.050;11.036;2023-04-15T16:07:34;9.70;99.90
5059;DHT22;2548;52.050;11.036;2023-04-15T16:10:05;9.70;99.90
5059;DHT22;2548;52.050;11.036;2023-04-15T16:12:34;9.70;99.90
5059;DHT22;2548;52.050;11.036;2023-04-15T16:15:04;9.70;99.90
5059;DHT22;2548;52.050;11.036;2023-04-15T16:17:31;9.70;99.90
5059;DHT22;2548;52.050;11.036;2023-04-15T16:19:59;9.70;99.90
5059;DHT22;2548;52.050;11.036;2023-04-15T16:22:37;9.70;99.90
5059;DHT22;2548;52.050;11.036;2023-04-15T16:25:06;9.70;99.90
5059;DHT22;2548;52.050;11.036;2023-04-15T16:27:41;9.70;99.90
5059;DHT22;2548;52.050;11.036;2023-04-15T16:30:13;9.70;99.90